Time;durP1;ratioP1;P1;durP2;ratioP2;P2;SDS_P1;SDS_P2;PMS_P1;PMS_P2;Temp;Humidity;BMP_temperature;BMP_pressure;BME280_temperature;BME280_humidity;BME280_pressure;Samples;Min_cycle;Max_cycle;Signal;HPM_P1;HPM_P2
2023/10/01 00:01:16;;;;;;;13.50;2.70;;;;;;;14.21;100.00;101741.06;5039118;28;20033;-77
2023/10/01 00:03:42;;;;;;;11.47;2.57;;;;;;;14.29;100.00;101736.56;5044321;28;20047;-77
2023/10/01 00:06:07;;;;;;;12.40;3.33;;;;;;;14.29;100.00;101739.25;5043130;28;20503;-77
2023/10/01 00:08:34;;;;;;;14.87;2.43;;;;;;;14.22;100.00;101724.81;5034836;28;20043;-76
2023/10/01 00:11:00;;;;;;;;;;;;;;;14.22;100.00;101718.59;5038791;28;20065;-77
2023/10/01 00:13:26;;;;;;;13.55;3.35;;;;;;;14.13;100.00;101701.59;5034811;28;19913;-77
2023/10/01 00:15:52;;;;;;;12.35;3.88;;;;;;;14.21;100.00;101712.38;5042629;28;20032;-77
2023/10/01 00:18:17;;;;;;;15.65;3.38;;;;;;;14.26;100.00;101715.41;5034092;28;20430;-77
2023/10/01 00:20:43;;;;;;;8.43;2.70;;;;;;;14.19;100.00;101709.03;5038987;28;20037;-77
2023/10/01 00:23:08;;;;;;;18.45;4.10;;;;;;;14.28;100.00;101721.47;5043669;28;20032;-77
2023/10/01 00:25:38;;;;;;;13.43;3.57;;;;;;;14.21;100.00;101725.81;5044515;28;20457;-77
2023/10/01 00:28:04;;;;;;;14.57;3.08;;;;;;;14.10;100.00;101713.50;5044687;28;20450;-77
2023/10/01 00:30:31;;;;;;;12.80;2.50;;;;;;;14.12;100.00;101721.41;5044652;28;20021;-77
2023/10/01 00:32:56;;;;;;;12.15;2.67;;;;;;;14.19;100.00;101724.25;5044174;28;20041;-77
2023/10/01 00:35:22;;;;;;;10.82;2.97;;;;;;;14.15;100.00;101713.84;5038613;28;20098;-77
2023/10/01 00:37:47;;;;;;;23.57;4.53;;;;;;;14.13;100.00;101704.28;5039816;28;20793;-77
2023/10/01 00:40:13;;;;;;;10.33;3.53;;;;;;;14.21;100.00;101704.34;5039868;28;20033;-78
2023/10/01 00:42:39;;;;;;;12.95;3.42;;;;;;;14.19;100.00;101694.72;5045033;28;20358;-77
2023/10/01 00:45:13;;;;;;;10.93;2.67;;;;;;;14.18;100.00;101693.06;5042703;28;20029;-77
2023/10/01 00:47:40;;;;;;;12.55;2.50;;;;;;;14.07;100.00;101681.63;5046317;28;20033;-76
2023/10/01 00:50:12;;;;;;;18.90;3.35;;;;;;;14.16;100.00;101674.41;5047668;28;20040;-77
2023/10/01 00:52:40;;;;;;;13.25;2.92;;;;;;;14.17;100.00;101649.25;5047719;28;20111;-77
2023/10/01 00:55:08;;;;;;;13.30;3.10;;;;;;;14.21;100.00;101639.00;5048751;28;20051;-77
2023/10/01 00:57:37;;;;;;;13.32;2.70;;;;;;;14.25;100.00;101641.19;5047067;28;20048;-78
2023/10/01 01:00:09;;;;;;;11.02;2.75;;;;;;;14.28;100.00;101626.59;5064233;28;20057;-78
2023/10/01 01:02:37;;;;;;;13.82;3.15;;;;;;;14.23;100.00;101623.56;5063289;28;20040;-77
2023/10/01 01:05:19;;;;;;;11.10;2.45;;;;;;;14.29;100.00;101636.34;5045056;28;20033;-77
2023/10/01 01:07:47;;;;;;;9.95;2.78;;;;;;;14.22;100.00;101638.84;5048555;28;20033;-77
2023/10/01 01:10:16;;;;;;;10.77;2.53;;;;;;;14.22;100.00;101651.44;5047182;28;20037;-77
2023/10/01 01:12:45;;;;;;;17.98;3.38;;;;;;;14.22;100.00;101665.72;5044069;28;20120;-77
2023/10/01 01:15:12;;;;;;;14.95;3.03;;;;;;;14.16;100.00;101669.03;5044820;28;20041;-77
2023/10/01 01:17:40;;;;;;;18.58;3.88;;;;;;;14.13;100.00;101670.22;5048355;28;20063;-77
2023/10/01 01:20:09;;;;;;;12.80;3.33;;;;;;;14.12;100.00;101681.13;5028639;28;20111;-77
2023/10/01 01:22:39;;;;;;;15.13;3.65;;;;;;;14.12;100.00;101681.13;5045948;28;20029;-77
2023/10/01 01:25:10;;;;;;;9.13;2.85;;;;;;;14.12;100.00;101668.53;5044866;28;20038;-77
2023/10/01 01:27:37;;;;;;;19.80;3.22;;;;;;;14.06;100.00;101690.66;5048167;28;20021;-77
2023/10/01 01:30:09;;;;;;;12.75;3.28;;;;;;;14.10;100.00;101686.66;5048237;28;20021;-76
2023/10/01 01:32:36;;;;;;;11.90;3.67;;;;;;;13.98;100.00;101687.09;5048546;28;20064;-77
2023/10/01 01:35:04;;;;;;;14.80;3.22;;;;;;;13.86;100.00;101691.91;5047967;28;20082;-76
2023/10/01 01:37:36;;;;;;;9.93;3.03;;;;;;;13.85;100.00;101707.19;5046603;28;20024;-77
2023/10/01 01:40:24;;;;;;;11.95;3.40;;;;;;;13.89;100.00;101715.78;5039495;28;20051;-78
2023/10/01 01:42:49;;;;;;;11.13;2.67;;;;;;;13.95;100.00;101723.16;5046207;28;20073;-77
2023/10/01 01:45:25;;;;;;;23.17;3.87;;;;;;;13.94;100.00;101721.50;5041008;28;20033;-76
2023/10/01 01:47:50;;;;;;;10.15;3.13;;;;;;;13.87;100.00;101715.94;5040632;28;20025;-77
2023/10/01 01:50:19;;;;;;;14.20;3.50;;;;;;;13.86;100.00;101716.94;5047653;28;20454;-76
2023/10/01 01:52:51;;;;;;;12.55;3.95;;;;;;;13.79;100.00;101715.91;5046442;28;20080;-75
2023/10/01 01:55:27;;;;;;;9.07;3.17;;;;;;;13.85;100.00;101725.97;5046330;28;20075;-77
2023/10/01 01:58:08;;;;;;;13.02;3.22;;;;;;;13.90;100.00;101733.56;5032077;28;20065;-77
2023/10/01 02:00:37;;;;;;;12.68;3.95;;;;;;;13.85;100.00;101731.34;5040088;28;20034;-76
2023/10/01 02:03:14;;;;;;;24.42;3.30;;;;;;;13.81;100.00;101721.91;5043369;28;20029;-77
2023/10/01 02:05:41;;;;;;;14.10;4.35;;;;;;;13.62;100.00;101724.84;5035388;28;20049;-76
2023/10/01 02:08:23;;;;;;;8.88;2.60;;;;;;;13.71;100.00;101742.69;5040119;28;20104;-76
2023/10/01 02:10:53;;;;;;;18.05;4.75;;;;;;;13.76;100.00;101734.97;5053937;28;20103;-76
2023/10/01 02:13:21;;;;;;;15.68;3.92;;;;;;;13.81;100.00;101735.34;5039844;28;20079;-77
2023/10/01 02:15:47;;;;;;;13.68;3.78;;;;;;;13.74;100.00;101728.94;5041054;28;20033;-76
2023/10/01 02:18:22;;;;;;;12.30;4.72;;;;;;;13.73;100.00;101716.53;5045603;28;21052;-77
2023/10/01 02:20:52;;;;;;;9.73;3.28;;;;;;;13.84;100.00;101729.69;5062815;28;20033;-77
2023/10/01 02:23:32;;;;;;;16.98;4.18;;;;;;;13.77;100.00;101712.53;5045628;28;20082;-77
2023/10/01 02:26:00;;;;;;;11.40;3.33;;;;;;;13.78;100.00;101711.50;5045716;28;20038;-77
2023/10/01 02:28:26;;;;;;;12.27;3.40;;;;;;;13.80;100.00;101706.00;5038428;28;20032;-77
2023/10/01 02:31:00;;;;;;;11.55;3.85;;;;;;;13.82;100.00;101698.63;5056900;28;20020;-77
2023/10/01 02:33:54;;;;;;;17.65;4.78;;;;;;;13.77;100.00;101669.59;5044584;28;20041;-76
2023/10/01 02:36:12;;;;;;;16.10;2.97;;;;;;;13.77;100.00;101668.75;5046659;28;20037;-76
2023/10/01 02:38:43;;;;;;;13.90;3.83;;;;;;;13.81;100.00;101660.19;5045133;28;20033;-77
2023/10/01 02:41:09;;;;;;;11.70;3.25;;;;;;;13.91;100.00;101655.56;5045621;28;20047;-77
2023/10/01 02:43:36;;;;;;;10.40;2.58;;;;;;;13.90;100.00;101631.53;5046727;28;20052;-75
2023/10/01 02:46:09;;;;;;;12.43;4.55;;;;;;;13.92;100.00;101624.16;5045358;28;20055;-76
2023/10/01 02:48:36;;;;;;;15.82;3.03;;;;;;;13.86;100.00;101614.94;5042504;28;20041;-77
2023/10/01 02:51:16;;;;;;;12.25;2.85;;;;;;;13.81;100.00;101611.03;5036762;28;20033;-77
2023/10/01 02:54:01;;;;;;;12.93;3.13;;;;;;;13.77;100.00;101610.53;5035012;28;20197;-77
2023/10/01 02:56:33;;;;;;;16.10;3.92;;;;;;;13.80;100.00;101604.84;5026064;28;20063;-76
2023/10/01 02:59:24;;;;;;;9.95;3.17;;;;;;;13.86;100.00;101597.97;5045986;28;20033;-77
2023/10/01 03:01:49;;;;;;;13.05;2.75;;;;;;;13.85;100.00;101602.50;5045231;28;20431;-76
2023/10/01 03:04:16;;;;;;;21.30;3.67;;;;;;;13.79;100.00;101605.84;5046312;28;20029;-77
2023/10/01 03:06:56;;;;;;;19.38;4.45;;;;;;;13.71;100.00;101608.50;5044833;28;20045;-76
2023/10/01 03:09:31;;;;;;;17.00;4.65;;;;;;;13.57;100.00;101614.47;5044720;28;20090;-77
2023/10/01 03:15:16;;;;;;;10.85;3.42;;;;;;;13.70;100.00;101628.31;5046241;28;20116;-77
2023/10/01 03:23:25;;;;;;;11.68;3.40;;;;;;;13.67;100.00;101626.78;5045634;28;20068;-76
2023/10/01 03:26:00;;;;;;;13.73;3.30;;;;;;;13.68;100.00;101627.63;5035308;28;20032;-77
2023/10/01 03:31:17;;;;;;;9.70;3.00;;;;;;;13.59;100.00;101623.22;5045580;28;20517;-76
2023/10/01 03:33:45;;;;;;;16.90;3.33;;;;;;;13.51;100.00;101624.84;5034291;28;20033;-76
2023/10/01 03:36:12;;;;;;;9.80;2.97;;;;;;;13.61;100.00;101634.63;5038126;28;20038;-76
2023/10/01 03:38:45;;;;;;;14.38;3.78;;;;;;;13.56;100.00;101628.91;5054408;28;20031;-77
2023/10/01 03:41:21;;;;;;;20.30;3.60;;;;;;;13.54;100.00;101629.06;5044144;28;20476;-76
2023/10/01 03:43:47;;;;;;;13.50;3.65;;;;;;;13.60;100.00;101622.19;5035872;28;20071;-76
2023/10/01 03:46:15;;;;;;;20.60;3.85;;;;;;;13.55;100.00;101613.78;5036153;28;20032;-77
2023/10/01 03:54:20;;;;;;;12.35;3.42;;;;;;;13.65;100.00;101611.81;5045363;28;20554;-76
2023/10/01 03:56:57;;;;;;;10.73;3.38;;;;;;;13.63;100.00;101609.31;5044924;28;20040;-76
2023/10/01 03:59:32;;;;;;;17.70;3.65;;;;;;;13.63;100.00;101595.91;5045125;28;20040;-76
2023/10/01 04:01:58;;;;;;;11.57;2.92;;;;;;;13.58;100.00;101589.31;5045331;28;20032;-76
2023/10/01 04:04:56;;;;;;;15.77;3.25;;;;;;;13.53;100.00;101581.75;5045277;28;20025;-77
2023/10/01 04:07:18;;;;;;;10.23;3.35;;;;;;;13.55;100.00;101578.91;5043064;28;20618;-76
2023/10/01 04:09:47;;;;;;;20.03;3.77;;;;;;;13.54;100.00;101566.53;5041421;28;20119;-76
2023/10/01 04:12:19;;;;;;;14.43;3.85;;;;;;;13.45;100.00;101555.75;5035450;28;20643;-77
2023/10/01 04:14:49;;;;;;;12.25;3.85;;;;;;;13.56;100.00;101570.72;5037917;28;20035;-76
2023/10/01 04:17:18;;;;;;;10.25;3.00;;;;;;;13.62;100.00;101567.38;5034931;28;20025;-77
2023/10/01 04:19:49;;;;;;;9.70;3.33;;;;;;;13.66;100.00;101567.91;5035156;28;20044;-77
2023/10/01 04:22:15;;;;;;;10.07;3.20;;;;;;;13.55;100.00;101536.00;5039060;28;20061;-77
2023/10/01 04:24:42;;;;;;;;;;;;;;;13.57;100.00;101534.00;5055469;28;20052;-76
2023/10/01 04:27:23;;;;;;;10.20;2.90;;;;;;;13.57;100.00;101529.47;5045184;28;19916;-76
2023/10/01 04:29:57;;;;;;;12.68;3.47;;;;;;;13.49;100.00;101545.53;5040982;28;20112;-76
2023/10/01 04:32:28;;;;;;;13.68;3.85;;;;;;;13.43;100.00;101554.22;5046902;28;20043;-76
2023/10/01 04:34:56;;;;;;;16.83;5.38;;;;;;;13.42;100.00;101550.72;5046936;28;20045;-77
2023/10/01 04:37:36;;;;;;;14.70;4.70;;;;;;;13.44;100.00;101556.75;5037081;28;20049;-76
2023/10/01 04:40:06;;;;;;;11.38;4.60;;;;;;;13.41;100.00;101556.22;5043241;28;20495;-76
2023/10/01 04:42:37;;;;;;;13.52;3.55;;;;;;;13.37;100.00;101558.41;5037065;28;20029;-76
2023/10/01 04:45:22;;;;;;;10.50;3.47;;;;;;;13.41;100.00;101559.75;5035517;28;20877;-77
2023/10/01 04:47:55;;;;;;;11.35;2.90;;;;;;;13.47;100.00;101569.00;5040062;28;20107;-77
2023/10/01 04:50:27;;;;;;;12.65;3.60;;;;;;;13.50;100.00;101572.19;5046313;28;20116;-76
2023/10/01 04:52:57;;;;;;;15.60;3.50;;;;;;;13.54;100.00;101566.53;5048892;28;20437;-76
2023/10/01 04:55:25;;;;;;;12.93;3.30;;;;;;;13.53;100.00;101557.59;5042165;28;20036;-76
2023/10/01 04:57:51;;;;;;;11.95;3.28;;;;;;;13.69;100.00;101572.94;5041667;28;20494;-76
2023/10/01 05:00:21;;;;;;;19.08;4.47;;;;;;;13.76;100.00;101555.16;5045191;28;20162;-76
2023/10/01 05:02:47;;;;;;;19.75;4.40;;;;;;;13.75;100.00;101548.13;5044057;28;20032;-76
2023/10/01 05:05:16;;;;;;;12.18;3.20;;;;;;;13.83;100.00;101558.03;5040857;28;20090;-76
2023/10/01 05:07:42;;;;;;;12.13;3.70;;;;;;;13.75;100.00;101548.13;5039156;28;20028;-76
2023/10/01 05:10:08;;;;;;;11.25;4.05;;;;;;;13.84;100.00;101574.00;5044039;28;20100;-77
2023/10/01 05:12:43;;;;;;;11.13;4.10;;;;;;;13.82;100.00;101569.81;5038364;28;20094;-76
2023/10/01 05:15:17;;;;;;;10.52;3.67;;;;;;;13.91;100.00;101572.34;5034243;28;20041;-76
2023/10/01 05:17:44;;;;;;;14.55;3.80;;;;;;;13.72;100.00;101567.25;5043435;28;20036;-76
2023/10/01 05:20:09;;;;;;;9.95;3.60;;;;;;;13.91;100.00;101593.81;5039709;28;20564;-76
2023/10/01 05:22:46;;;;;;;17.83;4.68;;;;;;;13.81;100.00;101552.00;5042213;28;20028;-76
2023/10/01 05:25:12;;;;;;;15.13;4.32;;;;;;;13.86;100.00;101558.56;5044586;28;20037;-77
2023/10/01 05:27:40;;;;;;;;;;;;;;;14.00;100.00;101567.84;5042580;28;20013;-77
2023/10/01 05:30:32;;;;;;;11.45;4.20;;;;;;;14.02;100.00;101562.28;5036035;28;19913;-77
2023/10/01 05:32:52;;;;;;;12.77;5.68;;;;;;;13.85;100.00;101543.44;5038942;28;20021;-76
2023/10/01 05:35:17;;;;;;;22.88;6.28;;;;;;;14.06;100.00;101577.06;5037183;28;20217;-77
2023/10/01 05:37:45;;;;;;;13.77;6.27;;;;;;;14.02;100.00;101565.78;5031259;28;20025;-77
2023/10/01 05:40:15;;;;;;;14.93;5.45;;;;;;;14.13;100.00;101578.91;5036307;28;20456;-77
2023/10/01 05:42:41;;;;;;;14.25;4.70;;;;;;;14.13;100.00;101564.66;5062962;22;20487;-77
2023/10/01 05:45:14;;;;;;;15.18;5.85;;;;;;;14.12;100.00;101597.88;5045725;28;20138;-77
2023/10/01 05:47:51;;;;;;;15.90;5.13;;;;;;;14.03;100.00;101605.06;5040889;28;20032;-75
2023/10/01 05:50:18;;;;;;;12.73;4.90;;;;;;;14.01;100.00;101585.59;5029184;28;20056;-77
2023/10/01 05:52:45;;;;;;;15.38;5.82;;;;;;;13.91;100.00;101590.28;5043020;28;20543;-77
2023/10/01 05:55:15;;;;;;;24.17;5.78;;;;;;;13.92;100.00;101594.63;5039410;28;20442;-77
2023/10/01 05:57:43;;;;;;;21.02;6.55;;;;;;;13.86;100.00;101590.78;5043723;28;20065;-77
2023/10/01 06:00:16;;;;;;;14.45;5.55;;;;;;;13.90;100.00;101584.06;5051109;28;20032;-79
2023/10/01 06:03:00;;;;;;;12.30;5.15;;;;;;;14.03;100.00;101605.06;5047777;28;20156;-78
2023/10/01 06:05:50;;;;;;;12.93;6.05;;;;;;;13.89;100.00;101590.44;5049918;28;20139;-80
2023/10/01 06:08:14;;;;;;;13.90;4.97;;;;;;;13.82;100.00;101602.00;5046960;28;20049;-76
2023/10/01 06:10:59;;;;;;;11.00;4.93;;;;;;;13.82;100.00;101632.38;5029070;28;20017;-78
2023/10/01 06:13:28;;;;;;;16.60;5.30;;;;;;;14.11;100.00;101649.91;5030686;28;20029;-79
2023/10/01 06:15:56;;;;;;;17.35;6.68;;;;;;;14.06;100.00;101628.06;5041706;28;20029;-78
2023/10/01 06:18:22;;;;;;;16.20;6.07;;;;;;;13.91;100.00;101617.13;5045180;28;20106;-79
2023/10/01 06:20:50;;;;;;;16.98;5.93;;;;;;;13.86;100.00;101636.41;5039206;28;20136;-77
2023/10/01 06:23:16;;;;;;;17.17;5.57;;;;;;;13.97;100.00;101650.53;5049859;28;20510;-79
2023/10/01 06:25:43;;;;;;;13.68;5.93;;;;;;;13.91;100.00;101626.03;5045503;28;20032;-79
2023/10/01 06:28:09;;;;;;;14.75;5.70;;;;;;;13.93;100.00;101647.34;5046934;28;20549;-77
2023/10/01 06:30:40;;;;;;;;;;;;;;;13.96;100.00;101651.53;5054681;28;20032;-78
2023/10/01 06:33:24;;;;;;;16.00;6.28;;;;;;;13.82;100.00;101645.78;5044355;28;19920;-75
2023/10/01 06:36:15;;;;;;;18.67;6.93;;;;;;;13.97;100.00;101658.59;5043585;28;20440;-77
2023/10/01 06:38:37;;;;;;;20.40;7.03;;;;;;;14.03;100.00;101653.41;5050106;28;20044;-77
2023/10/01 06:41:06;;;;;;;13.43;6.13;;;;;;;13.95;100.00;101639.94;5049851;28;20024;-76
2023/10/01 06:43:32;;;;;;;16.92;5.93;;;;;;;14.14;100.00;101654.94;5051715;28;20051;-79
2023/10/01 06:45:59;;;;;;;;;;;;;;;14.21;100.00;101652.44;5050438;28;20127;-77
2023/10/01 06:48:27;;;;;;;14.55;6.40;;;;;;;14.12;100.00;101635.47;5046545;28;20006;-78
2023/10/01 06:50:53;;;;;;;27.30;6.95;;;;;;;14.11;100.00;101661.47;5048291;28;20419;-78
2023/10/01 06:53:20;;;;;;;16.55;6.28;;;;;;;14.16;100.00;101652.94;5043623;28;20088;-77
2023/10/01 06:55:47;;;;;;;23.38;7.30;;;;;;;14.12;100.00;101644.38;5041940;28;20037;-78
2023/10/01 06:58:13;;;;;;;17.60;6.80;;;;;;;14.22;100.00;101652.28;5042506;28;20917;-75
2023/10/01 07:00:41;;;;;;;14.43;7.07;;;;;;;14.22;100.00;101636.16;5062160;28;20028;-76
2023/10/01 07:03:30;;;;;;;16.85;7.85;;;;;;;14.20;100.00;101631.97;5046403;28;20067;-76
2023/10/01 07:05:57;;;;;;;14.40;6.80;;;;;;;14.23;100.00;101626.25;5049516;28;20039;-79
2023/10/01 07:08:37;;;;;;;15.82;8.20;;;;;;;14.21;100.00;101644.38;5048565;28;20037;-77
2023/10/01 07:11:11;;;;;;;18.92;6.32;;;;;;;14.27;100.00;101649.94;5049882;28;20037;-79
2023/10/01 07:13:40;;;;;;;18.00;7.45;;;;;;;14.10;100.00;101624.06;5065461;28;20025;-78
2023/10/01 07:16:07;;;;;;;26.50;7.35;;;;;;;14.14;100.00;101644.19;5050191;28;20025;-78
2023/10/01 07:18:37;;;;;;;14.38;7.28;;;;;;;14.04;100.00;101664.97;5037031;28;20036;-79
2023/10/01 07:21:09;;;;;;;16.75;7.57;;;;;;;14.10;100.00;101672.41;5046826;28;20033;-76
2023/10/01 07:23:35;;;;;;;15.90;7.72;;;;;;;14.22;100.00;101678.31;5046598;28;20032;-77
2023/10/01 07:26:00;;;;;;;20.60;8.25;;;;;;;14.10;100.00;101659.81;5046418;28;20040;-77
2023/10/01 07:28:30;;;;;;;25.65;9.43;;;;;;;13.99;100.00;101678.88;5049304;28;20040;-79
2023/10/01 07:31:01;;;;;;;16.70;8.55;;;;;;;13.91;100.00;101671.66;5048178;28;20031;-78
2023/10/01 07:33:28;;;;;;;18.48;7.90;;;;;;;14.05;100.00;101694.38;5048195;28;20403;-79
2023/10/01 07:36:00;;;;;;;23.30;8.15;;;;;;;14.33;100.00;101691.44;5049450;28;20071;-79
2023/10/01 07:38:31;;;;;;;16.88;8.15;;;;;;;14.40;100.00;101668.28;5060511;28;20116;-79
2023/10/01 07:41:07;;;;;;;17.05;8.07;;;;;;;14.29;100.00;101664.03;5041976;28;20108;-79
2023/10/01 07:43:33;;;;;;;17.98;7.78;;;;;;;14.19;100.00;101663.38;5049095;28;20040;-78
2023/10/01 07:46:02;;;;;;;21.10;8.15;;;;;;;14.14;100.00;101657.63;5044001;28;20024;-78
2023/10/01 07:48:33;;;;;;;17.60;8.52;;;;;;;14.32;100.00;101674.44;5048629;28;20033;-78
2023/10/01 07:51:02;;;;;;;19.48;9.32;;;;;;;14.22;100.00;101646.91;5048539;28;20047;-76
2023/10/01 07:53:32;;;;;;;15.63;7.57;;;;;;;14.44;100.00;101668.78;5044034;28;20148;-76
2023/10/01 07:56:07;;;;;;;25.88;8.45;;;;;;;14.48;100.00;101648.63;5044204;28;20073;-76
2023/10/01 07:58:47;;;;;;;21.70;8.38;;;;;;;14.42;100.00;101652.84;5064007;28;20384;-79
2023/10/01 08:01:37;;;;;;;17.92;7.80;;;;;;;14.47;100.00;101676.50;5047733;28;20084;-78
2023/10/01 08:04:19;;;;;;;19.15;8.30;;;;;;;14.52;100.00;101679.56;5048257;28;20144;-78
2023/10/01 08:06:44;;;;;;;29.75;8.35;;;;;;;14.46;100.00;101682.88;5042896;28;20033;-79
2023/10/01 08:09:13;;;;;;;16.67;7.95;;;;;;;14.48;100.00;101681.72;5047166;28;20099;-77
2023/10/01 08:11:58;;;;;;;17.83;7.70;;;;;;;14.54;100.00;101691.00;5041779;28;20121;-77
2023/10/01 08:14:26;;;;;;;23.45;8.95;;;;;;;14.60;100.00;101692.19;5040704;28;20375;-78
2023/10/01 08:16:56;;;;;;;19.52;8.60;;;;;;;14.45;100.00;101676.69;5047157;28;20628;-76
2023/10/01 08:19:22;;;;;;;28.40;9.38;;;;;;;14.55;100.00;101690.00;5047312;28;20037;-78
2023/10/01 08:21:51;;;;;;;20.33;8.83;;;;;;;14.68;100.00;101684.09;5048943;28;20078;-78
2023/10/01 08:24:20;;;;;;;19.48;7.95;;;;;;;14.84;100.00;101673.38;5047510;28;20028;-78
2023/10/01 08:26:57;;;;;;;17.02;7.93;;;;;;;14.82;100.00;101644.97;5047809;28;20090;-78
2023/10/01 08:29:28;;;;;;;16.13;8.50;;;;;;;14.95;100.00;101630.00;5049347;28;20045;-79
2023/10/01 08:34:23;;;;;;;23.05;8.15;;;;;;;15.09;100.00;101601.59;5049214;28;20024;-78
2023/10/01 08:36:56;;;;;;;12.82;7.13;;;;;;;15.42;100.00;101598.81;5048599;28;20925;-79
2023/10/01 08:39:36;;;;;;;22.33;7.88;;;;;;;15.45;100.00;101566.16;5048994;28;20118;-79
2023/10/01 08:42:10;;;;;;;18.08;7.20;;;;;;;15.61;100.00;101555.31;5047441;28;20040;-76
2023/10/01 08:44:46;;;;;;;20.52;7.50;;;;;;;15.59;100.00;101541.22;5048007;28;20581;-79
2023/10/01 08:47:22;;;;;;;;;;;;;;;15.50;100.00;101549.50;5049263;28;20033;-78
2023/10/01 08:49:52;;;;;;;19.65;6.82;;;;;;;15.32;100.00;101526.38;5042964;28;19916;-78
2023/10/01 08:52:30;;;;;;;21.85;7.43;;;;;;;15.56;100.00;101538.88;5049094;28;20086;-78
2023/10/01 08:54:56;;;;;;;16.17;6.78;;;;;;;15.60;100.00;101512.44;5049265;28;20052;-78
2023/10/01 08:57:38;;;;;;;20.77;6.70;;;;;;;15.72;100.00;101535.28;5042117;28;20044;-78
2023/10/01 09:00:15;;;;;;;18.98;8.00;;;;;;;15.79;100.00;101506.63;5043117;28;20029;-79
2023/10/01 09:02:40;;;;;;;21.52;7.32;;;;;;;15.82;100.00;101500.06;5048151;28;20033;-79
2023/10/01 09:05:08;;;;;;;16.57;5.90;;;;;;;15.75;100.00;101489.16;5047879;28;20831;-79
2023/10/01 09:07:47;;;;;;;14.93;6.18;;;;;;;15.81;100.00;101460.69;5042578;28;20024;-77
2023/10/01 09:10:17;;;;;;;24.17;7.45;;;;;;;15.82;100.00;101446.22;5053004;28;20025;-78
2023/10/01 09:12:46;;;;;;;25.67;8.95;;;;;;;15.93;100.00;101455.72;5053415;28;20032;-78
2023/10/01 09:15:27;;;;;;;14.73;5.88;;;;;;;16.12;100.00;101408.59;5052876;28;20080;-78
2023/10/01 09:17:56;;;;;;;18.25;6.55;;;;;;;16.00;100.00;101344.41;5053232;28;20029;-78
2023/10/01 09:20:39;;;;;;;17.75;6.18;;;;;;;16.00;100.00;101365.94;5051745;28;20066;-79
2023/10/01 09:23:05;;;;;;;17.33;5.63;;;;;;;15.94;100.00;101374.75;5053041;28;20037;-78
2023/10/01 09:25:34;;;;;;;14.30;6.00;;;;;;;15.98;100.00;101370.66;5035277;28;20028;-78
2023/10/01 09:28:19;;;;;;;23.55;7.15;;;;;;;16.06;100.00;101374.31;5052813;28;20040;-77
2023/10/01 09:31:03;;;;;;;12.27;5.88;;;;;;;16.30;100.00;101357.91;5047191;28;20033;-78
2023/10/01 09:33:31;;;;;;;13.82;6.85;;;;;;;16.26;100.00;101305.41;5050845;28;20033;-78
2023/10/01 09:35:59;;;;;;;21.60;6.72;;;;;;;16.56;100.00;101365.50;5050956;28;20033;-77
2023/10/01 09:38:28;;;;;;;22.98;7.25;;;;;;;16.52;100.00;101339.13;5050597;28;20082;-78
2023/10/01 09:40:55;;;;;;;13.15;5.13;;;;;;;16.16;100.00;101334.50;5049298;28;20427;-78
2023/10/01 09:43:29;;;;;;;16.17;7.03;;;;;;;16.35;100.00;101328.53;5052695;28;20025;-79
2023/10/01 09:45:57;;;;;;;18.92;6.13;;;;;;;16.46;100.00;101354.19;5050894;28;20037;-78
2023/10/01 09:48:30;;;;;;;15.45;6.25;;;;;;;16.60;100.00;101301.25;5050505;28;20045;-78
2023/10/01 09:51:15;;;;;;;17.38;6.68;;;;;;;16.62;100.00;101266.88;5052675;28;20029;-79
2023/10/01 09:53:50;;;;;;;14.55;6.90;;;;;;;16.48;100.00;101192.28;5052697;28;20099;-78
2023/10/01 09:56:26;;;;;;;12.88;5.75;;;;;;;16.45;100.00;101205.09;5048372;28;20036;-78
2023/10/01 09:59:03;;;;;;;15.20;7.63;;;;;;;16.68;100.00;101183.38;5045456;28;20391;-77
2023/10/01 10:01:31;;;;;;;17.10;7.45;;;;;;;17.47;100.00;101217.50;5051056;28;20037;-78
2023/10/01 10:04:01;;;;;;;19.65;6.60;;;;;;;17.49;100.00;101103.97;5051257;28;21011;-77
2023/10/01 10:06:27;;;;;;;18.08;8.93;;;;;;;17.39;100.00;101025.19;5051910;28;20143;-78
2023/10/01 10:09:03;;;;;;;17.30;7.63;;;;;;;17.00;100.00;101005.09;5051864;28;20079;-78
2023/10/01 10:11:40;;;;;;;16.10;7.15;;;;;;;16.86;100.00;101126.34;5052283;28;20063;-78
2023/10/01 10:14:29;;;;;;;16.35;6.78;;;;;;;17.15;100.00;101161.44;5050300;28;20040;-78
2023/10/01 10:16:58;;;;;;;16.52;7.50;;;;;;;16.80;100.00;101073.19;5029908;28;20045;-77
2023/10/01 10:19:24;;;;;;;17.25;7.18;;;;;;;16.72;100.00;101191.94;5049076;28;20029;-78
2023/10/01 10:24:31;;;;;;;20.42;7.50;;;;;;;16.68;100.00;101333.53;5039626;28;20541;-77
2023/10/01 10:26:58;;;;;;;13.73;6.70;;;;;;;16.76;100.00;101270.56;5034712;28;20040;-78
2023/10/01 10:29:24;;;;;;;18.15;8.00;;;;;;;16.62;100.00;101326.19;5047658;28;20061;-78
2023/10/01 10:32:09;;;;;;;17.75;8.32;;;;;;;16.90;100.00;101310.16;5049372;28;20033;-78
2023/10/01 10:34:47;;;;;;;18.20;7.13;;;;;;;17.01;100.00;101284.56;5048494;28;20032;-78
2023/10/01 10:37:45;;;;;;;19.73;8.25;;;;;;;16.71;100.00;101209.13;5048286;28;20029;-78
2023/10/01 10:43:04;;;;;;;17.60;8.38;;;;;;;16.60;100.00;101159.25;5048467;28;20507;-78
2023/10/01 10:45:46;;;;;;;18.00;7.82;;;;;;;16.91;100.00;101275.97;5048118;28;20041;-78
2023/10/01 10:48:16;;;;;;;20.45;7.13;;;;;;;17.04;100.00;101236.47;5047718;28;20036;-78
2023/10/01 10:50:48;;;;;;;17.63;7.13;;;;;;;17.36;100.00;101212.66;5044899;28;20047;-78
2023/10/01 10:53:21;;;;;;;16.95;7.15;;;;;;;17.37;100.00;101117.19;5051245;28;20039;-78
2023/10/01 10:56:07;;;;;;;20.45;8.35;;;;;;;17.47;100.00;101131.13;5042129;28;20146;-78
2023/10/01 10:58:39;;;;;;;13.80;6.72;;;;;;;17.73;100.00;101130.44;5063189;28;20080;-78
2023/10/01 11:01:22;;;;;;;19.52;7.50;;;;;;;17.60;100.00;101027.78;5043982;28;20484;-78
2023/10/01 11:03:57;;;;;;;14.27;7.47;;;;;;;17.45;100.00;101019.84;5045875;28;20029;-78
2023/10/01 11:06:25;;;;;;;16.83;7.18;;;;;;;17.13;100.00;101034.81;5034948;28;20037;-78
2023/10/01 11:08:54;;;;;;;14.75;6.88;;;;;;;17.37;100.00;101073.13;5047247;28;20021;-78
2023/10/01 11:11:25;;;;;;;16.48;7.45;;;;;;;17.69;100.00;101131.03;5043800;28;20041;-78
2023/10/01 11:14:00;;;;;;;28.30;8.38;;;;;;;18.10;100.00;101020.28;5048954;28;20063;-78
2023/10/01 11:16:39;;;;;;;16.10;7.38;;;;;;;18.49;100.00;100936.69;5048439;28;20035;-78
2023/10/01 11:19:14;;;;;;;14.13;6.93;;;;;;;17.99;100.00;100769.66;5047504;28;20028;-78
2023/10/01 11:21:55;;;;;;;15.38;6.90;;;;;;;17.85;100.00;100881.44;5044175;28;20032;-78
2023/10/01 11:24:39;;;;;;;18.73;6.22;;;;;;;17.63;100.00;100878.91;5040607;28;20047;-78
2023/10/01 11:27:20;;;;;;;19.85;6.80;;;;;;;17.79;100.00;100966.75;5046738;28;20472;-77
2023/10/01 11:30:20;;;;;;;18.08;6.65;;;;;;;17.88;100.00;100943.13;5048180;28;20044;-78
2023/10/01 11:33:12;;;;;;;15.65;6.18;;;;;;;17.58;100.00;100929.97;5038176;28;20032;-78
2023/10/01 11:35:55;;;;;;;13.85;6.30;;;;;;;17.91;100.00;100950.81;5046715;28;20087;-77
2023/10/01 11:38:28;;;;;;;20.92;7.60;;;;;;;17.71;100.00;100861.66;5045923;28;20036;-78
2023/10/01 11:41:13;;;;;;;14.55;6.55;;;;;;;17.79;100.00;100868.72;5046333;28;20052;-78
2023/10/01 11:43:58;;;;;;;15.80;5.95;;;;;;;17.71;100.00;100822.00;5046100;28;20029;-77
2023/10/01 11:46:32;;;;;;;17.20;6.97;;;;;;;17.82;100.00;100874.59;5045511;28;20040;-77
2023/10/01 11:49:07;;;;;;;15.70;7.15;;;;;;;17.67;100.00;100880.13;5045552;28;20037;-77
2023/10/01 11:51:48;;;;;;;16.70;7.22;;;;;;;17.67;100.00;100955.72;5045406;28;20097;-77
2023/10/01 11:54:16;;;;;;;14.45;7.80;;;;;;;17.24;100.00;100993.78;5045641;28;20040;-78
2023/10/01 11:56:44;;;;;;;18.13;7.70;;;;;;;17.38;100.00;101010.06;5037157;28;20442;-77
2023/10/01 11:59:18;;;;;;;17.35;6.90;;;;;;;17.78;100.00;101061.50;5043892;28;20029;-77